sensor_id;sensor_type;location;lat;lon;timestamp;P1;durP1;ratioP1;P2;durP2;ratioP2
33104;SDS011;19476;51.448;6.674;2022-07-29T00:02:03;1.90;;;0.70;;
33104;SDS011;19476;51.448;6.674;2022-07-29T00:04:29;2.10;;;0.75;;
33104;SDS011;19476;51.448;6.674;2022-07-29T00:06:55;1.95;;;0.70;;
33104;SDS011;19476;51.448;6.674;2022-07-29T00:09:21;3.25;;;0.75;;
33104;SDS011;19476;51.448;6.674;2022-07-29T00:11:46;2.72;;;0.68;;
33104;SDS011;19476;51.448;6.674;2022-07-29T00:14:13;2.78;;;0.82;;
33104;SDS011;19476;51.448;6.674;2022-07-29T00:16:39;1.77;;;0.63;;
33104;SDS011;19476;51.448;6.674;2022-07-29T00:19:05;1.40;;;0.80;;
33104;SDS011;19476;51.448;6.674;2022-07-29T00:21:31;2.05;;;0.70;;
33104;SDS011;19476;51.448;6.674;2022-07-29T00:23:56;1.35;;;0.90;;
33104;SDS011;19476;51.448;6.674;2022-07-29T00:26:22;1.63;;;0.57;;
33104;SDS011;19476;51.448;6.674;2022-07-29T00:28:48;2.22;;;0.80;;
33104;SDS011;19476;51.448;6.674;2022-07-29T00:31:14;1.38;;;0.60;;
33104;SDS011;19476;51.448;6.674;2022-07-29T00:33:40;2.83;;;0.88;;
33104;SDS011;19476;51.448;6.674;2022-07-29T00:36:06;2.47;;;0.60;;
33104;SDS011;19476;51.448;6.674;2022-07-29T00:38:32;2.65;;;0.63;;
33104;SDS011;19476;51.448;6.674;2022-07-29T00:40:57;1.80;;;0.70;;
33104;SDS011;19476;51.448;6.674;2022-07-29T00:43:23;1.95;;;0.88;;
33104;SDS011;19476;51.448;6.674;2022-07-29T00:45:49;2.35;;;0.75;;
33104;SDS011;19476;51.448;6.674;2022-07-29T00:48:15;1.52;;;0.50;;
33104;SDS011;19476;51.448;6.674;2022-07-29T00:50:40;1.85;;;0.50;;
33104;SDS011;19476;51.448;6.674;2022-07-29T00:53:07;2.10;;;0.80;;
33104;SDS011;19476;51.448;6.674;2022-07-29T00:55:33;2.17;;;0.68;;
33104;SDS011;19476;51.448;6.674;2022-07-29T00:57:59;2.67;;;0.82;;
33104;SDS011;19476;51.448;6.674;2022-07-29T01:00:26;2.95;;;0.82;;
33104;SDS011;19476;51.448;6.674;2022-07-29T01:02:53;1.48;;;0.55;;
33104;SDS011;19476;51.448;6.674;2022-07-29T01:05:19;5.43;;;0.80;;
33104;SDS011;19476;51.448;6.674;2022-07-29T01:07:48;2.80;;;0.70;;
33104;SDS011;19476;51.448;6.674;2022-07-29T01:10:16;1.10;;;0.60;;
33104;SDS011;19476;51.448;6.674;2022-07-29T01:12:43;0.60;;;0.40;;
33104;SDS011;19476;51.448;6.674;2022-07-29T01:15:11;1.55;;;0.50;;
33104;SDS011;19476;51.448;6.674;2022-07-29T01:26:31;0.80;;;0.60;;
33104;SDS011;19476;51.448;6.674;2022-07-29T01:34:09;1.70;;;0.60;;
33104;SDS011;19476;51.448;6.674;2022-07-29T01:39:18;2.33;;;0.77;;
33104;SDS011;19476;51.448;6.674;2022-07-29T01:41:57;1.08;;;0.50;;
33104;SDS011;19476;51.448;6.674;2022-07-29T01:44:49;1.90;;;0.60;;
33104;SDS011;19476;51.448;6.674;2022-07-29T01:47:38;1.33;;;0.63;;
33104;SDS011;19476;51.448;6.674;2022-07-29T01:50:10;1.38;;;0.50;;
33104;SDS011;19476;51.448;6.674;2022-07-29T01:52:42;1.90;;;0.40;;
33104;SDS011;19476;51.448;6.674;2022-07-29T01:55:13;2.13;;;0.60;;
33104;SDS011;19476;51.448;6.674;2022-07-29T01:57:42;2.70;;;0.80;;
33104;SDS011;19476;51.448;6.674;2022-07-29T02:00:10;3.03;;;0.60;;
33104;SDS011;19476;51.448;6.674;2022-07-29T02:02:41;1.92;;;0.68;;
33104;SDS011;19476;51.448;6.674;2022-07-29T02:05:10;1.58;;;0.60;;
33104;SDS011;19476;51.448;6.674;2022-07-29T02:07:38;1.33;;;0.50;;
33104;SDS011;19476;51.448;6.674;2022-07-29T02:10:07;2.10;;;0.68;;
33104;SDS011;19476;51.448;6.674;2022-07-29T02:12:34;1.55;;;0.80;;
33104;SDS011;19476;51.448;6.674;2022-07-29T02:15:01;1.48;;;0.70;;
33104;SDS011;19476;51.448;6.674;2022-07-29T02:17:33;1.75;;;0.63;;
33104;SDS011;19476;51.448;6.674;2022-07-29T02:20:04;2.63;;;0.70;;
33104;SDS011;19476;51.448;6.674;2022-07-29T02:22:31;1.88;;;0.80;;
33104;SDS011;19476;51.448;6.674;2022-07-29T02:25:00;2.50;;;1.20;;
33104;SDS011;19476;51.448;6.674;2022-07-29T02:27:26;2.55;;;0.98;;
33104;SDS011;19476;51.448;6.674;2022-07-29T02:29:54;1.90;;;0.60;;
33104;SDS011;19476;51.448;6.674;2022-07-29T02:32:23;1.10;;;0.50;;
33104;SDS011;19476;51.448;6.674;2022-07-29T02:34:51;0.65;;;0.35;;
33104;SDS011;19476;51.448;6.674;2022-07-29T02:37:17;1.55;;;0.70;;
33104;SDS011;19476;51.448;6.674;2022-07-29T02:39:44;2.13;;;0.60;;
33104;SDS011;19476;51.448;6.674;2022-07-29T02:42:15;3.55;;;0.80;;
33104;SDS011;19476;51.448;6.674;2022-07-29T02:44:42;3.22;;;0.60;;
33104;SDS011;19476;51.448;6.674;2022-07-29T02:52:16;3.53;;;1.00;;
33104;SDS011;19476;51.448;6.674;2022-07-29T02:54:56;2.83;;;0.70;;
33104;SDS011;19476;51.448;6.674;2022-07-29T02:57:32;5.60;;;0.85;;
33104;SDS011;19476;51.448;6.674;2022-07-29T03:00:04;2.72;;;0.60;;
33104;SDS011;19476;51.448;6.674;2022-07-29T03:02:36;1.33;;;0.55;;
33104;SDS011;19476;51.448;6.674;2022-07-29T03:05:06;2.42;;;0.70;;
33104;SDS011;19476;51.448;6.674;2022-07-29T03:07:35;1.27;;;0.80;;
33104;SDS011;19476;51.448;6.674;2022-07-29T03:10:03;3.03;;;0.68;;
33104;SDS011;19476;51.448;6.674;2022-07-29T03:12:29;1.60;;;0.40;;
33104;SDS011;19476;51.448;6.674;2022-07-29T03:14:56;1.42;;;0.60;;
33104;SDS011;19476;51.448;6.674;2022-07-29T03:17:22;2.90;;;0.80;;
33104;SDS011;19476;51.448;6.674;2022-07-29T03:19:49;1.38;;;0.50;;
33104;SDS011;19476;51.448;6.674;2022-07-29T03:22:15;2.13;;;0.50;;
33104;SDS011;19476;51.448;6.674;2022-07-29T03:24:41;1.95;;;0.52;;
33104;SDS011;19476;51.448;6.674;2022-07-29T03:27:07;1.42;;;0.57;;
33104;SDS011;19476;51.448;6.674;2022-07-29T03:29:33;2.17;;;0.47;;
33104;SDS011;19476;51.448;6.674;2022-07-29T03:32:00;1.67;;;0.40;;
33104;SDS011;19476;51.448;6.674;2022-07-29T03:34:29;1.38;;;0.57;;
33104;SDS011;19476;51.448;6.674;2022-07-29T03:36:54;1.60;;;0.50;;
33104;SDS011;19476;51.448;6.674;2022-07-29T03:39:21;1.40;;;0.60;;
33104;SDS011;19476;51.448;6.674;2022-07-29T03:41:52;1.58;;;0.50;;
33104;SDS011;19476;51.448;6.674;2022-07-29T03:44:21;1.13;;;0.55;;
33104;SDS011;19476;51.448;6.674;2022-07-29T03:46:49;1.23;;;0.63;;
33104;SDS011;19476;51.448;6.674;2022-07-29T03:49:17;1.52;;;0.60;;
33104;SDS011;19476;51.448;6.674;2022-07-29T03:51:45;2.13;;;0.60;;
33104;SDS011;19476;51.448;6.674;2022-07-29T03:54:12;0.95;;;0.52;;
33104;SDS011;19476;51.448;6.674;2022-07-29T03:56:39;1.23;;;0.50;;
33104;SDS011;19476;51.448;6.674;2022-07-29T03:59:08;0.68;;;0.50;;
33104;SDS011;19476;51.448;6.674;2022-07-29T04:01:35;2.22;;;0.68;;
33104;SDS011;19476;51.448;6.674;2022-07-29T04:04:04;1.13;;;0.47;;
33104;SDS011;19476;51.448;6.674;2022-07-29T04:06:42;2.40;;;0.63;;
33104;SDS011;19476;51.448;6.674;2022-07-29T04:09:09;2.33;;;0.60;;
33104;SDS011;19476;51.448;6.674;2022-07-29T04:11:36;1.83;;;0.63;;
33104;SDS011;19476;51.448;6.674;2022-07-29T04:14:05;0.90;;;0.45;;
33104;SDS011;19476;51.448;6.674;2022-07-29T04:16:30;1.85;;;0.55;;
33104;SDS011;19476;51.448;6.674;2022-07-29T04:18:57;3.95;;;0.88;;
33104;SDS011;19476;51.448;6.674;2022-07-29T04:21:22;1.63;;;0.47;;
33104;SDS011;19476;51.448;6.674;2022-07-29T04:23:48;1.27;;;0.80;;
33104;SDS011;19476;51.448;6.674;2022-07-29T04:26:18;2.03;;;0.70;;
33104;SDS011;19476;51.448;6.674;2022-07-29T04:28:45;1.15;;;0.63;;
33104;SDS011;19476;51.448;6.674;2022-07-29T04:31:12;2.20;;;0.90;;
33104;SDS011;19476;51.448;6.674;2022-07-29T04:33:38;1.77;;;0.70;;
33104;SDS011;19476;51.448;6.674;2022-07-29T04:36:04;1.00;;;0.70;;
33104;SDS011;19476;51.448;6.674;2022-07-29T04:38:30;3.03;;;0.80;;
33104;SDS011;19476;51.448;6.674;2022-07-29T04:40:56;1.48;;;0.70;;
33104;SDS011;19476;51.448;6.674;2022-07-29T04:43:25;3.00;;;0.68;;
33104;SDS011;19476;51.448;6.674;2022-07-29T04:45:51;1.73;;;0.90;;
33104;SDS011;19476;51.448;6.674;2022-07-29T04:48:17;4.70;;;0.80;;
33104;SDS011;19476;51.448;6.674;2022-07-29T04:50:44;1.77;;;0.80;;
33104;SDS011;19476;51.448;6.674;2022-07-29T04:53:11;2.33;;;0.60;;
33104;SDS011;19476;51.448;6.674;2022-07-29T04:55:37;1.63;;;0.77;;
33104;SDS011;19476;51.448;6.674;2022-07-29T04:58:03;3.15;;;0.70;;
33104;SDS011;19476;51.448;6.674;2022-07-29T05:00:28;1.40;;;0.82;;
33104;SDS011;19476;51.448;6.674;2022-07-29T05:02:55;3.20;;;0.90;;
33104;SDS011;19476;51.448;6.674;2022-07-29T05:05:20;0.93;;;0.60;;
33104;SDS011;19476;51.448;6.674;2022-07-29T05:07:46;1.52;;;0.80;;
33104;SDS011;19476;51.448;6.674;2022-07-29T05:10:12;2.40;;;0.70;;
33104;SDS011;19476;51.448;6.674;2022-07-29T05:12:47;2.33;;;0.70;;
33104;SDS011;19476;51.448;6.674;2022-07-29T05:15:13;1.52;;;0.57;;
33104;SDS011;19476;51.448;6.674;2022-07-29T05:17:39;1.27;;;0.70;;
33104;SDS011;19476;51.448;6.674;2022-07-29T05:20:06;1.73;;;0.75;;
33104;SDS011;19476;51.448;6.674;2022-07-29T05:22:32;1.50;;;0.82;;
33104;SDS011;19476;51.448;6.674;2022-07-29T05:24:58;3.45;;;1.00;;
33104;SDS011;19476;51.448;6.674;2022-07-29T05:27:32;2.42;;;0.77;;
33104;SDS011;19476;51.448;6.674;2022-07-29T05:30:02;2.88;;;0.80;;
33104;SDS011;19476;51.448;6.674;2022-07-29T05:32:31;2.13;;;0.98;;
33104;SDS011;19476;51.448;6.674;2022-07-29T05:34:57;1.08;;;0.60;;
33104;SDS011;19476;51.448;6.674;2022-07-29T05:37:23;2.63;;;1.15;;
33104;SDS011;19476;51.448;6.674;2022-07-29T05:39:49;3.78;;;1.10;;
33104;SDS011;19476;51.448;6.674;2022-07-29T05:42:15;4.03;;;1.05;;
33104;SDS011;19476;51.448;6.674;2022-07-29T05:44:44;2.03;;;1.10;;
33104;SDS011;19476;51.448;6.674;2022-07-29T05:47:10;4.60;;;0.90;;
33104;SDS011;19476;51.448;6.674;2022-07-29T05:49:36;1.85;;;1.00;;
33104;SDS011;19476;51.448;6.674;2022-07-29T05:52:02;1.83;;;0.85;;
33104;SDS011;19476;51.448;6.674;2022-07-29T05:54:28;2.65;;;1.10;;
33104;SDS011;19476;51.448;6.674;2022-07-29T05:56:54;2.38;;;0.77;;
33104;SDS011;19476;51.448;6.674;2022-07-29T05:59:20;3.08;;;1.10;;
33104;SDS011;19476;51.448;6.674;2022-07-29T06:01:46;1.92;;;0.90;;
33104;SDS011;19476;51.448;6.674;2022-07-29T06:04:12;1.85;;;0.90;;
33104;SDS011;19476;51.448;6.674;2022-07-29T06:06:38;1.85;;;0.63;;
33104;SDS011;19476;51.448;6.674;2022-07-29T06:09:04;3.55;;;0.90;;
33104;SDS011;19476;51.448;6.674;2022-07-29T06:11:30;1.30;;;0.75;;
33104;SDS011;19476;51.448;6.674;2022-07-29T06:13:56;2.30;;;1.00;;
33104;SDS011;19476;51.448;6.674;2022-07-29T06:16:22;2.80;;;0.85;;
33104;SDS011;19476;51.448;6.674;2022-07-29T06:18:47;2.20;;;0.98;;
33104;SDS011;19476;51.448;6.674;2022-07-29T06:21:13;2.20;;;1.00;;
33104;SDS011;19476;51.448;6.674;2022-07-29T06:23:39;3.40;;;1.08;;
33104;SDS011;19476;51.448;6.674;2022-07-29T06:26:05;2.03;;;1.15;;
33104;SDS011;19476;51.448;6.674;2022-07-29T06:28:32;6.00;;;1.38;;
33104;SDS011;19476;51.448;6.674;2022-07-29T06:30:58;2.42;;;1.17;;
33104;SDS011;19476;51.448;6.674;2022-07-29T06:33:24;4.97;;;1.73;;
33104;SDS011;19476;51.448;6.674;2022-07-29T06:35:50;4.90;;;1.52;;
33104;SDS011;19476;51.448;6.674;2022-07-29T06:38:16;3.95;;;1.60;;
33104;SDS011;19476;51.448;6.674;2022-07-29T06:40:42;5.00;;;1.60;;
33104;SDS011;19476;51.448;6.674;2022-07-29T06:43:33;5.05;;;2.45;;
33104;SDS011;19476;51.448;6.674;2022-07-29T06:46:04;5.10;;;2.05;;
33104;SDS011;19476;51.448;6.674;2022-07-29T06:48:32;4.20;;;1.42;;
33104;SDS011;19476;51.448;6.674;2022-07-29T06:50:58;5.40;;;1.92;;
33104;SDS011;19476;51.448;6.674;2022-07-29T06:53:25;3.67;;;1.85;;
33104;SDS011;19476;51.448;6.674;2022-07-29T06:55:52;5.32;;;1.80;;
33104;SDS011;19476;51.448;6.674;2022-07-29T06:58:21;4.05;;;1.88;;
33104;SDS011;19476;51.448;6.674;2022-07-29T07:00:47;8.38;;;2.13;;
33104;SDS011;19476;51.448;6.674;2022-07-29T07:03:13;3.63;;;1.45;;
33104;SDS011;19476;51.448;6.674;2022-07-29T07:05:40;3.75;;;1.60;;
33104;SDS011;19476;51.448;6.674;2022-07-29T07:08:06;7.70;;;1.98;;
33104;SDS011;19476;51.448;6.674;2022-07-29T07:10:33;5.95;;;1.60;;
33104;SDS011;19476;51.448;6.674;2022-07-29T07:13:00;4.38;;;1.65;;
33104;SDS011;19476;51.448;6.674;2022-07-29T07:15:27;4.10;;;1.50;;
33104;SDS011;19476;51.448;6.674;2022-07-29T07:17:53;5.22;;;1.38;;
33104;SDS011;19476;51.448;6.674;2022-07-29T07:20:19;5.22;;;1.75;;
33104;SDS011;19476;51.448;6.674;2022-07-29T07:22:45;4.35;;;1.55;;
33104;SDS011;19476;51.448;6.674;2022-07-29T07:25:12;3.65;;;1.73;;
33104;SDS011;19476;51.448;6.674;2022-07-29T07:27:38;4.32;;;1.88;;
33104;SDS011;19476;51.448;6.674;2022-07-29T07:30:05;5.10;;;1.35;;
33104;SDS011;19476;51.448;6.674;2022-07-29T07:32:34;4.13;;;1.45;;
33104;SDS011;19476;51.448;6.674;2022-07-29T07:35:01;2.95;;;1.33;;
33104;SDS011;19476;51.448;6.674;2022-07-29T07:37:28;3.33;;;1.35;;
33104;SDS011;19476;51.448;6.674;2022-07-29T07:39:54;1.90;;;1.00;;
33104;SDS011;19476;51.448;6.674;2022-07-29T07:42:20;2.50;;;1.60;;
33104;SDS011;19476;51.448;6.674;2022-07-29T07:44:46;2.03;;;1.25;;
33104;SDS011;19476;51.448;6.674;2022-07-29T07:47:13;3.60;;;1.30;;
33104;SDS011;19476;51.448;6.674;2022-07-29T07:49:44;3.13;;;1.48;;
33104;SDS011;19476;51.448;6.674;2022-07-29T07:52:12;1.95;;;1.20;;
33104;SDS011;19476;51.448;6.674;2022-07-29T07:54:39;4.22;;;1.80;;
33104;SDS011;19476;51.448;6.674;2022-07-29T07:57:05;2.83;;;1.42;;
33104;SDS011;19476;51.448;6.674;2022-07-29T07:59:31;3.65;;;1.55;;
33104;SDS011;19476;51.448;6.674;2022-07-29T08:01:57;2.53;;;1.45;;
33104;SDS011;19476;51.448;6.674;2022-07-29T08:04:23;3.28;;;1.50;;
33104;SDS011;19476;51.448;6.674;2022-07-29T08:06:50;4.38;;;1.48;;
33104;SDS011;19476;51.448;6.674;2022-07-29T08:09:16;4.45;;;1.63;;
33104;SDS011;19476;51.448;6.674;2022-07-29T08:11:42;2.33;;;1.42;;
33104;SDS011;19476;51.448;6.674;2022-07-29T08:14:08;4.13;;;1.70;;
33104;SDS011;19476;51.448;6.674;2022-07-29T08:16:34;4.82;;;1.80;;
33104;SDS011;19476;51.448;6.674;2022-07-29T08:19:00;3.60;;;1.60;;
33104;SDS011;19476;51.448;6.674;2022-07-29T08:21:25;3.85;;;1.33;;
33104;SDS011;19476;51.448;6.674;2022-07-29T08:23:51;4.43;;;1.70;;
33104;SDS011;19476;51.448;6.674;2022-07-29T08:26:19;4.18;;;1.75;;
33104;SDS011;19476;51.448;6.674;2022-07-29T08:28:48;4.03;;;1.88;;
33104;SDS011;19476;51.448;6.674;2022-07-29T08:31:18;4.35;;;1.60;;
33104;SDS011;19476;51.448;6.674;2022-07-29T08:33:44;2.50;;;1.35;;
33104;SDS011;19476;51.448;6.674;2022-07-29T08:36:10;2.50;;;1.58;;
33104;SDS011;19476;51.448;6.674;2022-07-29T08:38:38;2.47;;;1.42;;
33104;SDS011;19476;51.448;6.674;2022-07-29T08:41:04;2.03;;;1.33;;
33104;SDS011;19476;51.448;6.674;2022-07-29T08:43:31;4.05;;;1.25;;
33104;SDS011;19476;51.448;6.674;2022-07-29T08:45:57;3.40;;;1.25;;
33104;SDS011;19476;51.448;6.674;2022-07-29T08:48:23;2.50;;;1.10;;
33104;SDS011;19476;51.448;6.674;2022-07-29T08:50:51;2.70;;;1.30;;
33104;SDS011;19476;51.448;6.674;2022-07-29T08:53:20;3.08;;;1.40;;
33104;SDS011;19476;51.448;6.674;2022-07-29T08:55:49;3.13;;;1.35;;
33104;SDS011;19476;51.448;6.674;2022-07-29T08:58:16;1.45;;;1.00;;
33104;SDS011;19476;51.448;6.674;2022-07-29T09:00:47;3.33;;;1.20;;
33104;SDS011;19476;51.448;6.674;2022-07-29T09:03:20;3.25;;;1.17;;
33104;SDS011;19476;51.448;6.674;2022-07-29T09:05:48;2.45;;;1.35;;
33104;SDS011;19476;51.448;6.674;2022-07-29T09:08:17;3.45;;;1.58;;
33104;SDS011;19476;51.448;6.674;2022-07-29T09:10:45;2.97;;;1.20;;
33104;SDS011;19476;51.448;6.674;2022-07-29T09:13:11;3.65;;;1.50;;
33104;SDS011;19476;51.448;6.674;2022-07-29T09:15:37;4.35;;;1.65;;
33104;SDS011;19476;51.448;6.674;2022-07-29T09:18:03;5.53;;;2.00;;
33104;SDS011;19476;51.448;6.674;2022-07-29T09:20:29;3.60;;;1.60;;
33104;SDS011;19476;51.448;6.674;2022-07-29T09:23:15;3.63;;;1.52;;
33104;SDS011;19476;51.448;6.674;2022-07-29T09:25:41;5.35;;;1.98;;
33104;SDS011;19476;51.448;6.674;2022-07-29T09:28:08;3.17;;;1.33;;
33104;SDS011;19476;51.448;6.674;2022-07-29T09:30:50;4.63;;;1.65;;
33104;SDS011;19476;51.448;6.674;2022-07-29T09:33:17;5.43;;;1.70;;
33104;SDS011;19476;51.448;6.674;2022-07-29T09:35:44;3.83;;;1.73;;
33104;SDS011;19476;51.448;6.674;2022-07-29T09:38:13;3.35;;;1.60;;
33104;SDS011;19476;51.448;6.674;2022-07-29T09:40:39;5.75;;;1.58;;
33104;SDS011;19476;51.448;6.674;2022-07-29T09:43:14;3.28;;;1.80;;
33104;SDS011;19476;51.448;6.674;2022-07-29T09:45:46;5.88;;;2.13;;
33104;SDS011;19476;51.448;6.674;2022-07-29T09:48:14;3.13;;;1.60;;
33104;SDS011;19476;51.448;6.674;2022-07-29T09:50:42;4.22;;;2.25;;
33104;SDS011;19476;51.448;6.674;2022-07-29T09:53:51;3.13;;;1.67;;
33104;SDS011;19476;51.448;6.674;2022-07-29T09:56:00;5.10;;;1.90;;
33104;SDS011;19476;51.448;6.674;2022-07-29T09:58:27;4.78;;;2.22;;
33104;SDS011;19476;51.448;6.674;2022-07-29T10:00:54;5.30;;;1.80;;
33104;SDS011;19476;51.448;6.674;2022-07-29T10:03:20;3.83;;;1.85;;
33104;SDS011;19476;51.448;6.674;2022-07-29T10:06:03;4.07;;;2.13;;
33104;SDS011;19476;51.448;6.674;2022-07-29T10:08:30;2.88;;;1.88;;
33104;SDS011;19476;51.448;6.674;2022-07-29T10:11:08;5.55;;;2.08;;
33104;SDS011;19476;51.448;6.674;2022-07-29T10:13:38;5.32;;;1.80;;
33104;SDS011;19476;51.448;6.674;2022-07-29T10:16:06;4.13;;;2.20;;
33104;SDS011;19476;51.448;6.674;2022-07-29T10:18:33;3.80;;;1.65;;
33104;SDS011;19476;51.448;6.674;2022-07-29T10:20:59;3.78;;;1.88;;
33104;SDS011;19476;51.448;6.674;2022-07-29T10:23:27;4.13;;;1.65;;
33104;SDS011;19476;51.448;6.674;2022-07-29T10:25:54;3.72;;;2.00;;
33104;SDS011;19476;51.448;6.674;2022-07-29T10:28:23;5.90;;;2.53;;
33104;SDS011;19476;51.448;6.674;2022-07-29T10:30:50;3.95;;;2.10;;
33104;SDS011;19476;51.448;6.674;2022-07-29T10:36:12;3.83;;;1.83;;
33104;SDS011;19476;51.448;6.674;2022-07-29T10:38:55;2.83;;;1.55;;
33104;SDS011;19476;51.448;6.674;2022-07-29T10:41:39;3.85;;;1.75;;
33104;SDS011;19476;51.448;6.674;2022-07-29T10:44:18;3.45;;;1.80;;
33104;SDS011;19476;51.448;6.674;2022-07-29T10:46:47;5.75;;;1.98;;
33104;SDS011;19476;51.448;6.674;2022-07-29T10:52:00;4.88;;;2.00;;
33104;SDS011;19476;51.448;6.674;2022-07-29T10:57:24;3.60;;;1.80;;
33104;SDS011;19476;51.448;6.674;2022-07-29T11:05:08;2.20;;;1.58;;
33104;SDS011;19476;51.448;6.674;2022-07-29T11:13:47;3.08;;;1.75;;
33104;SDS011;19476;51.448;6.674;2022-07-29T11:16:21;3.90;;;2.55;;
33104;SDS011;19476;51.448;6.674;2022-07-29T11:21:43;2.92;;;1.52;;
33104;SDS011;19476;51.448;6.674;2022-07-29T11:24:13;4.07;;;2.03;;
33104;SDS011;19476;51.448;6.674;2022-07-29T11:26:43;3.72;;;1.75;;
33104;SDS011;19476;51.448;6.674;2022-07-29T11:32:14;3.50;;;1.90;;
33104;SDS011;19476;51.448;6.674;2022-07-29T11:34:43;2.30;;;1.50;;
33104;SDS011;19476;51.448;6.674;2022-07-29T11:39:41;4.45;;;1.52;;
33104;SDS011;19476;51.448;6.674;2022-07-29T11:45:07;3.47;;;1.98;;
33104;SDS011;19476;51.448;6.674;2022-07-29T11:50:12;2.50;;;1.30;;
33104;SDS011;19476;51.448;6.674;2022-07-29T11:52:44;3.38;;;1.58;;
33104;SDS011;19476;51.448;6.674;2022-07-29T11:55:20;3.40;;;1.52;;
33104;SDS011;19476;51.448;6.674;2022-07-29T12:00:21;2.65;;;1.30;;
33104;SDS011;19476;51.448;6.674;2022-07-29T12:02:47;1.70;;;0.90;;
33104;SDS011;19476;51.448;6.674;2022-07-29T12:05:14;3.78;;;1.10;;
33104;SDS011;19476;51.448;6.674;2022-07-29T12:07:40;3.22;;;1.20;;
33104;SDS011;19476;51.448;6.674;2022-07-29T12:10:09;4.15;;;1.25;;
33104;SDS011;19476;51.448;6.674;2022-07-29T12:12:35;4.60;;;1.52;;
33104;SDS011;19476;51.448;6.674;2022-07-29T12:17:49;2.63;;;0.98;;
33104;SDS011;19476;51.448;6.674;2022-07-29T12:22:51;2.20;;;1.23;;
33104;SDS011;19476;51.448;6.674;2022-07-29T12:25:18;1.50;;;1.00;;
33104;SDS011;19476;51.448;6.674;2022-07-29T12:27:45;2.90;;;1.10;;
33104;SDS011;19476;51.448;6.674;2022-07-29T12:30:13;2.95;;;1.40;;
33104;SDS011;19476;51.448;6.674;2022-07-29T12:32:47;2.90;;;1.60;;
33104;SDS011;19476;51.448;6.674;2022-07-29T12:35:19;3.35;;;1.13;;
33104;SDS011;19476;51.448;6.674;2022-07-29T12:37:47;1.85;;;1.17;;
33104;SDS011;19476;51.448;6.674;2022-07-29T12:40:17;3.58;;;1.17;;
33104;SDS011;19476;51.448;6.674;2022-07-29T12:45:34;2.15;;;1.05;;
33104;SDS011;19476;51.448;6.674;2022-07-29T12:48:01;1.63;;;1.02;;
33104;SDS011;19476;51.448;6.674;2022-07-29T12:50:27;3.50;;;1.13;;
33104;SDS011;19476;51.448;6.674;2022-07-29T12:52:53;2.17;;;1.05;;
33104;SDS011;19476;51.448;6.674;2022-07-29T12:55:42;2.63;;;1.23;;
33104;SDS011;19476;51.448;6.674;2022-07-29T12:58:29;2.38;;;1.20;;
33104;SDS011;19476;51.448;6.674;2022-07-29T13:06:57;4.53;;;1.48;;
33104;SDS011;19476;51.448;6.674;2022-07-29T13:11:39;2.83;;;1.58;;
33104;SDS011;19476;51.448;6.674;2022-07-29T13:14:08;2.47;;;0.95;;
33104;SDS011;19476;51.448;6.674;2022-07-29T13:16:36;3.25;;;1.52;;
33104;SDS011;19476;51.448;6.674;2022-07-29T13:19:31;2.85;;;1.48;;
33104;SDS011;19476;51.448;6.674;2022-07-29T13:22:05;2.13;;;1.27;;
33104;SDS011;19476;51.448;6.674;2022-07-29T13:24:32;2.20;;;0.90;;
33104;SDS011;19476;51.448;6.674;2022-07-29T13:26:59;2.30;;;1.02;;
33104;SDS011;19476;51.448;6.674;2022-07-29T13:29:31;3.35;;;1.40;;
33104;SDS011;19476;51.448;6.674;2022-07-29T13:31:57;3.15;;;1.10;;
33104;SDS011;19476;51.448;6.674;2022-07-29T13:34:29;2.97;;;1.35;;
33104;SDS011;19476;51.448;6.674;2022-07-29T13:36:56;3.30;;;1.42;;
33104;SDS011;19476;51.448;6.674;2022-07-29T13:39:22;6.90;;;1.67;;
33104;SDS011;19476;51.448;6.674;2022-07-29T13:41:48;2.38;;;1.10;;
33104;SDS011;19476;51.448;6.674;2022-07-29T13:44:14;3.05;;;1.00;;
33104;SDS011;19476;51.448;6.674;2022-07-29T13:46:40;2.50;;;1.40;;
33104;SDS011;19476;51.448;6.674;2022-07-29T13:49:06;2.30;;;1.50;;
33104;SDS011;19476;51.448;6.674;2022-07-29T13:51:32;5.60;;;1.88;;
33104;SDS011;19476;51.448;6.674;2022-07-29T13:53:58;3.83;;;1.33;;
33104;SDS011;19476;51.448;6.674;2022-07-29T13:56:23;4.10;;;1.35;;
33104;SDS011;19476;51.448;6.674;2022-07-29T13:58:49;2.83;;;1.20;;
33104;SDS011;19476;51.448;6.674;2022-07-29T14:01:15;2.45;;;1.15;;
33104;SDS011;19476;51.448;6.674;2022-07-29T14:03:41;3.60;;;1.90;;
33104;SDS011;19476;51.448;6.674;2022-07-29T14:06:08;2.67;;;1.58;;
33104;SDS011;19476;51.448;6.674;2022-07-29T14:08:34;3.10;;;1.80;;
33104;SDS011;19476;51.448;6.674;2022-07-29T14:11:00;2.60;;;1.73;;
33104;SDS011;19476;51.448;6.674;2022-07-29T14:13:26;2.97;;;1.70;;
33104;SDS011;19476;51.448;6.674;2022-07-29T14:15:52;1.90;;;1.35;;
33104;SDS011;19476;51.448;6.674;2022-07-29T14:18:18;4.55;;;1.98;;
33104;SDS011;19476;51.448;6.674;2022-07-29T14:20:43;3.05;;;2.03;;
33104;SDS011;19476;51.448;6.674;2022-07-29T14:23:09;2.28;;;1.45;;
33104;SDS011;19476;51.448;6.674;2022-07-29T14:25:35;2.70;;;1.52;;
33104;SDS011;19476;51.448;6.674;2022-07-29T14:28:01;2.72;;;1.70;;
33104;SDS011;19476;51.448;6.674;2022-07-29T14:30:27;3.25;;;1.48;;
33104;SDS011;19476;51.448;6.674;2022-07-29T14:32:53;2.10;;;1.13;;
33104;SDS011;19476;51.448;6.674;2022-07-29T14:35:19;2.33;;;1.50;;
33104;SDS011;19476;51.448;6.674;2022-07-29T14:37:45;3.50;;;1.30;;
33104;SDS011;19476;51.448;6.674;2022-07-29T14:40:11;3.47;;;1.55;;
33104;SDS011;19476;51.448;6.674;2022-07-29T14:42:40;2.60;;;1.55;;
33104;SDS011;19476;51.448;6.674;2022-07-29T14:45:09;2.35;;;1.55;;
33104;SDS011;19476;51.448;6.674;2022-07-29T14:47:36;4.68;;;1.38;;
33104;SDS011;19476;51.448;6.674;2022-07-29T14:50:03;1.83;;;1.00;;
33104;SDS011;19476;51.448;6.674;2022-07-29T14:52:32;3.63;;;1.50;;
33104;SDS011;19476;51.448;6.674;2022-07-29T14:54:58;4.25;;;1.25;;
33104;SDS011;19476;51.448;6.674;2022-07-29T14:57:24;3.17;;;1.30;;
33104;SDS011;19476;51.448;6.674;2022-07-29T14:59:53;3.80;;;1.70;;
33104;SDS011;19476;51.448;6.674;2022-07-29T15:02:19;2.83;;;1.40;;
33104;SDS011;19476;51.448;6.674;2022-07-29T15:04:45;2.75;;;1.58;;
33104;SDS011;19476;51.448;6.674;2022-07-29T15:07:13;3.00;;;1.30;;
33104;SDS011;19476;51.448;6.674;2022-07-29T15:09:39;2.78;;;1.40;;
33104;SDS011;19476;51.448;6.674;2022-07-29T15:12:06;3.15;;;1.50;;
33104;SDS011;19476;51.448;6.674;2022-07-29T15:14:32;3.35;;;1.42;;
33104;SDS011;19476;51.448;6.674;2022-07-29T15:16:59;2.58;;;1.50;;
33104;SDS011;19476;51.448;6.674;2022-07-29T15:19:25;1.60;;;1.10;;
33104;SDS011;19476;51.448;6.674;2022-07-29T15:21:51;3.80;;;1.92;;
33104;SDS011;19476;51.448;6.674;2022-07-29T15:24:17;2.30;;;1.20;;
33104;SDS011;19476;51.448;6.674;2022-07-29T15:26:43;2.70;;;1.50;;
33104;SDS011;19476;51.448;6.674;2022-07-29T15:29:09;3.45;;;1.60;;
33104;SDS011;19476;51.448;6.674;2022-07-29T15:31:35;2.15;;;1.58;;
33104;SDS011;19476;51.448;6.674;2022-07-29T15:34:01;2.75;;;1.90;;
33104;SDS011;19476;51.448;6.674;2022-07-29T15:36:28;2.72;;;1.70;;
33104;SDS011;19476;51.448;6.674;2022-07-29T15:38:53;4.00;;;2.10;;
33104;SDS011;19476;51.448;6.674;2022-07-29T15:41:20;2.92;;;1.77;;
33104;SDS011;19476;51.448;6.674;2022-07-29T15:43:47;4.20;;;1.90;;
33104;SDS011;19476;51.448;6.674;2022-07-29T15:46:18;3.17;;;1.70;;
33104;SDS011;19476;51.448;6.674;2022-07-29T15:49:04;4.15;;;1.55;;
33104;SDS011;19476;51.448;6.674;2022-07-29T15:51:31;3.10;;;1.75;;
33104;SDS011;19476;51.448;6.674;2022-07-29T15:53:57;3.38;;;1.73;;
33104;SDS011;19476;51.448;6.674;2022-07-29T15:56:25;3.47;;;1.63;;
33104;SDS011;19476;51.448;6.674;2022-07-29T15:58:51;3.42;;;1.60;;
33104;SDS011;19476;51.448;6.674;2022-07-29T16:01:18;3.15;;;2.10;;
33104;SDS011;19476;51.448;6.674;2022-07-29T16:03:44;2.97;;;1.83;;
33104;SDS011;19476;51.448;6.674;2022-07-29T16:06:10;2.13;;;1.50;;
33104;SDS011;19476;51.448;6.674;2022-07-29T16:08:36;2.58;;;1.48;;